createdAt,value
2018-07-31T00:01:14.004Z,23.68
2018-07-31T00:03:43.231Z,23.66
2018-07-31T00:06:17.301Z,23.62
2018-07-31T00:08:46.608Z,23.59
2018-07-31T00:11:15.692Z,23.59
2018-07-31T00:13:44.877Z,23.53
2018-07-31T00:16:13.950Z,23.40
2018-07-31T00:18:42.968Z,23.37
2018-07-31T00:21:11.857Z,23.35
2018-07-31T00:23:40.812Z,23.29
2018-07-31T00:26:09.789Z,23.25
2018-07-31T00:28:38.579Z,23.21
2018-07-31T00:31:07.385Z,23.18
2018-07-31T00:33:36.455Z,23.15
2018-07-31T00:36:05.442Z,23.13
2018-07-31T00:38:34.742Z,23.10
2018-07-31T00:41:03.993Z,23.07
2018-07-31T00:43:32.905Z,22.96
2018-07-31T00:46:01.878Z,22.89
2018-07-31T00:48:30.770Z,22.85
2018-07-31T00:50:59.597Z,22.83
2018-07-31T00:53:28.816Z,22.81
2018-07-31T00:55:57.654Z,22.77
2018-07-31T00:58:26.465Z,22.79
2018-07-31T01:00:55.514Z,22.76
2018-07-31T01:03:24.275Z,22.73
2018-07-31T01:05:53.370Z,22.69
2018-07-31T01:08:22.405Z,22.68
2018-07-31T01:10:51.267Z,22.64
2018-07-31T01:13:19.936Z,22.64
2018-07-31T01:15:49.157Z,22.59
2018-07-31T01:18:17.905Z,22.57
2018-07-31T01:20:50.021Z,22.55
2018-07-31T01:23:19.930Z,22.55
2018-07-31T01:25:51.171Z,22.53
2018-07-31T01:28:21.953Z,22.48
2018-07-31T01:30:50.813Z,22.47
2018-07-31T01:33:19.978Z,22.43
2018-07-31T01:35:49.030Z,22.42
2018-07-31T01:38:17.760Z,22.43
2018-07-31T01:40:47.053Z,22.41
2018-07-31T01:43:15.855Z,22.38
2018-07-31T01:45:44.623Z,22.37
2018-07-31T01:48:13.413Z,22.35
2018-07-31T01:50:42.206Z,22.32
2018-07-31T01:53:10.885Z,22.32
2018-07-31T01:55:39.622Z,22.25
2018-07-31T01:58:08.387Z,22.23
2018-07-31T02:00:37.147Z,22.18
2018-07-31T02:03:05.880Z,22.16
2018-07-31T02:05:34.553Z,22.15
2018-07-31T02:08:03.352Z,22.09
2018-07-31T02:10:32.224Z,22.10
2018-07-31T02:13:00.921Z,22.11
2018-07-31T02:15:29.694Z,22.12
2018-07-31T02:17:58.441Z,22.09
2018-07-31T02:20:27.399Z,22.03
2018-07-31T02:22:56.166Z,21.99
2018-07-31T02:25:24.871Z,22.02
2018-07-31T02:27:53.559Z,22.02
2018-07-31T02:30:23.168Z,22.00
2018-07-31T02:32:52.680Z,21.96
2018-07-31T02:35:21.428Z,21.90
2018-07-31T02:37:50.279Z,21.88
2018-07-31T02:40:19.045Z,21.82
2018-07-31T02:42:47.730Z,21.80
2018-07-31T02:45:16.524Z,21.76
2018-07-31T02:47:45.911Z,21.72
2018-07-31T02:50:14.690Z,21.74
2018-07-31T02:52:43.700Z,21.71
2018-07-31T02:55:12.674Z,21.69
2018-07-31T02:57:42.009Z,21.67
2018-07-31T03:00:11.677Z,21.65
2018-07-31T03:02:40.394Z,21.65
2018-07-31T03:05:11.017Z,21.66
2018-07-31T03:07:39.867Z,21.67
2018-07-31T03:10:10.420Z,21.69
2018-07-31T03:12:39.129Z,21.69
2018-07-31T03:15:09.404Z,21.68
2018-07-31T03:17:38.265Z,21.61
2018-07-31T03:20:08.094Z,21.59
2018-07-31T03:22:36.853Z,21.59
2018-07-31T03:25:06.362Z,21.58
2018-07-31T03:27:35.159Z,21.58
2018-07-31T03:30:04.015Z,21.54
2018-07-31T03:32:32.765Z,21.46
2018-07-31T03:35:01.732Z,21.42
2018-07-31T03:37:30.791Z,21.37
2018-07-31T03:39:59.536Z,21.33
2018-07-31T03:42:28.245Z,21.36
2018-07-31T03:44:57.177Z,21.34
2018-07-31T03:47:25.982Z,21.33
2018-07-31T03:49:54.664Z,21.33
2018-07-31T03:52:23.429Z,21.33
2018-07-31T03:54:52.223Z,21.28
2018-07-31T03:57:20.886Z,21.28
2018-07-31T03:59:49.813Z,21.26
2018-07-31T04:02:18.711Z,21.29
2018-07-31T04:04:47.504Z,21.33
2018-07-31T04:07:16.185Z,21.32
2018-07-31T04:09:44.964Z,21.29
2018-07-31T04:12:13.804Z,21.29
2018-07-31T04:14:42.900Z,21.31
2018-07-31T04:17:11.850Z,21.31
2018-07-31T04:19:40.925Z,21.34
2018-07-31T04:22:09.653Z,21.35
2018-07-31T04:24:38.722Z,21.31
2018-07-31T04:27:07.491Z,21.35
2018-07-31T04:29:36.178Z,21.40
2018-07-31T04:32:04.963Z,21.40
2018-07-31T04:34:33.750Z,21.40
2018-07-31T04:37:02.521Z,21.42
2018-07-31T04:39:31.441Z,21.45
2018-07-31T04:42:00.179Z,21.49
2018-07-31T04:44:28.901Z,21.45
2018-07-31T04:46:57.594Z,21.53
2018-07-31T04:49:26.389Z,21.55
2018-07-31T04:51:55.314Z,21.55
2018-07-31T04:54:24.078Z,21.62
2018-07-31T04:56:53.326Z,21.64
2018-07-31T04:59:21.990Z,21.77
2018-07-31T05:01:50.855Z,21.85
2018-07-31T05:04:19.694Z,21.91
2018-07-31T05:06:48.602Z,22.01
2018-07-31T05:09:17.553Z,22.09
2018-07-31T05:11:46.238Z,22.18
2018-07-31T05:14:15.098Z,22.20
2018-07-31T05:16:43.949Z,22.23
2018-07-31T05:19:12.694Z,22.26
2018-07-31T05:21:41.570Z,22.35
2018-07-31T05:24:10.307Z,22.39
2018-07-31T05:26:39.499Z,22.46
2018-07-31T05:29:08.273Z,22.45
2018-07-31T05:31:37.389Z,22.57
2018-07-31T05:34:06.336Z,22.68
2018-07-31T05:36:35.202Z,22.78
2018-07-31T05:39:04.055Z,22.81
2018-07-31T05:41:32.728Z,22.88
2018-07-31T05:44:01.437Z,23.00
2018-07-31T05:46:30.246Z,23.11
2018-07-31T05:48:58.969Z,23.22
2018-07-31T05:51:27.626Z,23.29
2018-07-31T05:53:56.349Z,23.37
2018-07-31T05:56:25.346Z,23.46
2018-07-31T05:58:54.244Z,23.55
2018-07-31T06:01:23.462Z,23.52
2018-07-31T06:03:52.563Z,23.64
2018-07-31T06:06:21.551Z,23.73
2018-07-31T06:08:50.268Z,23.83
2018-07-31T06:11:19.040Z,23.94
2018-07-31T06:13:48.025Z,23.98
2018-07-31T06:16:16.801Z,24.05
2018-07-31T06:18:45.490Z,24.13
2018-07-31T06:21:14.518Z,24.24
2018-07-31T06:23:43.344Z,24.42
2018-07-31T06:26:12.038Z,24.50
2018-07-31T06:28:40.714Z,24.53
2018-07-31T06:31:09.578Z,24.72
2018-07-31T06:33:38.325Z,24.77
2018-07-31T06:36:11.235Z,24.81
2018-07-31T06:38:40.206Z,24.92
2018-07-31T06:41:09.104Z,25.02
2018-07-31T06:43:37.961Z,25.12
2018-07-31T06:46:06.691Z,25.26
2018-07-31T06:48:35.417Z,25.32
2018-07-31T06:51:04.255Z,25.48
2018-07-31T06:53:32.998Z,25.60
2018-07-31T06:56:01.935Z,25.75
2018-07-31T06:58:30.744Z,25.83
2018-07-31T07:00:59.462Z,25.92
2018-07-31T07:03:28.270Z,26.09
2018-07-31T07:05:57.297Z,26.24
2018-07-31T07:08:25.973Z,26.33
2018-07-31T07:10:54.862Z,26.48
2018-07-31T07:13:23.630Z,26.63
2018-07-31T07:15:52.557Z,26.75
2018-07-31T07:18:21.345Z,26.74
2018-07-31T07:20:50.170Z,26.82
2018-07-31T07:23:18.935Z,26.98
2018-07-31T07:25:48.335Z,27.11
2018-07-31T07:28:17.201Z,27.27
2018-07-31T07:30:45.949Z,27.44
2018-07-31T07:33:14.669Z,27.41
2018-07-31T07:35:43.362Z,27.49
2018-07-31T07:38:12.147Z,27.60
2018-07-31T07:40:40.873Z,27.67
2018-07-31T07:43:09.744Z,27.75
2018-07-31T07:45:38.560Z,27.91
2018-07-31T07:48:07.307Z,28.05
2018-07-31T07:50:36.594Z,28.15
2018-07-31T07:53:05.394Z,28.18
2018-07-31T07:55:34.200Z,28.28
2018-07-31T07:58:03.084Z,28.30
2018-07-31T08:00:31.846Z,28.32
2018-07-31T08:03:00.820Z,28.44
2018-07-31T08:05:29.522Z,28.61
2018-07-31T08:07:58.709Z,28.75
2018-07-31T08:10:27.654Z,28.75
2018-07-31T08:12:56.862Z,29.03
2018-07-31T08:15:25.829Z,29.15
2018-07-31T08:17:54.592Z,29.33
2018-07-31T08:20:24.162Z,29.43
2018-07-31T08:22:53.067Z,29.43
2018-07-31T08:25:22.241Z,29.50
2018-07-31T08:27:51.785Z,29.59
2018-07-31T08:30:20.512Z,29.72
2018-07-31T08:32:49.323Z,29.67
2018-07-31T08:35:18.409Z,29.70
2018-07-31T08:37:47.433Z,30.04
2018-07-31T08:40:17.121Z,30.22
2018-07-31T08:42:46.314Z,30.21
2018-07-31T08:45:15.144Z,30.26
2018-07-31T08:47:43.894Z,30.32
2018-07-31T08:50:12.674Z,30.44
2018-07-31T08:52:42.064Z,30.51
2018-07-31T08:55:11.282Z,30.58
2018-07-31T08:57:40.156Z,30.77
2018-07-31T09:00:09.965Z,30.81
2018-07-31T09:02:39.120Z,30.75
2018-07-31T09:05:10.056Z,30.95
2018-07-31T09:07:39.616Z,31.23
2018-07-31T09:10:09.345Z,31.32
2018-07-31T09:12:44.497Z,31.07
2018-07-31T09:15:13.410Z,31.29
2018-07-31T09:17:42.301Z,31.48
2018-07-31T09:20:11.873Z,31.66
2018-07-31T09:22:40.646Z,31.58
2018-07-31T09:25:09.649Z,31.64
2018-07-31T09:27:38.553Z,31.81
2018-07-31T09:30:07.633Z,31.67
2018-07-31T09:32:41.527Z,31.41
2018-07-31T09:35:10.320Z,31.75
2018-07-31T09:37:39.152Z,31.87
2018-07-31T09:40:08.200Z,32.04
2018-07-31T09:42:37.142Z,32.02
2018-07-31T09:45:05.992Z,31.83
2018-07-31T09:47:34.767Z,31.94
2018-07-31T09:50:03.585Z,32.08
2018-07-31T09:52:32.330Z,32.26
2018-07-31T09:55:01.202Z,32.06
2018-07-31T09:57:54.418Z,32.06
2018-07-31T10:00:29.139Z,32.45
2018-07-31T10:02:57.809Z,32.46
2018-07-31T10:05:26.876Z,32.47
2018-07-31T10:07:55.598Z,32.77
2018-07-31T10:10:24.516Z,32.90
2018-07-31T10:12:53.257Z,32.94
2018-07-31T10:15:22.169Z,32.59
2018-07-31T10:17:51.000Z,32.71
2018-07-31T10:20:19.793Z,32.55
2018-07-31T10:22:48.570Z,32.56
2018-07-31T10:25:17.338Z,32.69
2018-07-31T10:27:46.063Z,32.53
2018-07-31T10:30:14.983Z,32.34
2018-07-31T10:32:43.788Z,32.62
2018-07-31T10:35:12.473Z,32.78
2018-07-31T10:37:41.326Z,32.70
2018-07-31T10:40:09.990Z,32.60
2018-07-31T10:42:38.808Z,32.71
2018-07-31T10:45:07.499Z,32.83
2018-07-31T10:47:36.221Z,32.99
2018-07-31T10:50:04.947Z,32.97
2018-07-31T10:52:34.200Z,33.07
2018-07-31T10:55:02.961Z,33.22
2018-07-31T10:57:31.697Z,33.53
2018-07-31T11:00:00.506Z,33.39
2018-07-31T11:02:29.215Z,33.49
2018-07-31T11:04:57.930Z,33.17
2018-07-31T11:07:26.617Z,33.25
2018-07-31T11:09:55.610Z,33.08
2018-07-31T11:12:24.327Z,32.94
2018-07-31T11:14:53.189Z,32.83
2018-07-31T11:17:22.007Z,32.84
2018-07-31T11:19:50.785Z,33.01
2018-07-31T11:22:19.448Z,33.07
2018-07-31T11:24:48.166Z,33.33
2018-07-31T11:27:16.886Z,33.52
2018-07-31T11:29:45.652Z,33.61
2018-07-31T11:32:14.537Z,33.56
2018-07-31T11:34:43.351Z,33.79
2018-07-31T11:37:12.266Z,33.76
2018-07-31T11:39:40.933Z,33.73
2018-07-31T11:42:09.958Z,33.62
2018-07-31T11:44:39.648Z,33.84
2018-07-31T11:47:08.413Z,34.24
2018-07-31T11:49:37.156Z,34.62
2018-07-31T11:52:06.010Z,35.05
2018-07-31T11:54:34.866Z,35.21
2018-07-31T11:57:03.700Z,35.59
2018-07-31T11:59:33.081Z,35.90
2018-07-31T12:02:02.027Z,36.63
2018-07-31T12:04:30.878Z,36.27
2018-07-31T12:07:00.236Z,36.92
2018-07-31T12:09:28.916Z,36.60
2018-07-31T12:11:57.594Z,37.29
2018-07-31T12:14:26.433Z,37.92
2018-07-31T12:16:59.375Z,38.48
2018-07-31T12:19:28.311Z,38.75
2018-07-31T12:21:56.982Z,38.54
2018-07-31T12:24:25.691Z,37.70
2018-07-31T12:26:54.494Z,36.90
2018-07-31T12:29:23.470Z,36.89
2018-07-31T12:31:52.213Z,36.84
2018-07-31T12:34:21.132Z,37.42
2018-07-31T12:36:49.814Z,38.50
2018-07-31T12:39:18.464Z,39.51
2018-07-31T12:41:47.204Z,39.68
2018-07-31T12:44:15.861Z,40.33
2018-07-31T12:46:44.669Z,41.64
2018-07-31T12:49:13.360Z,40.25
2018-07-31T12:51:42.258Z,40.49
2018-07-31T12:54:11.046Z,42.35
2018-07-31T12:56:39.770Z,43.52
2018-07-31T12:59:08.418Z,43.80
2018-07-31T13:01:37.093Z,44.11
2018-07-31T13:04:06.022Z,43.14
2018-07-31T13:06:35.327Z,42.12
2018-07-31T13:09:05.201Z,43.39
2018-07-31T13:11:34.119Z,42.33
2018-07-31T13:14:02.897Z,41.27
2018-07-31T13:16:32.208Z,43.62
2018-07-31T13:19:01.322Z,44.22
2018-07-31T13:21:30.115Z,44.57
2018-07-31T13:23:58.885Z,44.90
2018-07-31T13:26:27.849Z,45.28
2018-07-31T13:28:57.306Z,43.77
2018-07-31T13:31:26.285Z,42.78
2018-07-31T13:33:55.220Z,43.22
2018-07-31T13:36:24.200Z,43.57
2018-07-31T13:38:53.635Z,45.07
2018-07-31T13:41:23.810Z,44.20
2018-07-31T13:43:52.734Z,44.63
2018-07-31T13:46:21.637Z,44.58
2018-07-31T13:48:50.502Z,45.26
2018-07-31T13:51:19.221Z,44.31
2018-07-31T13:53:48.243Z,43.92
2018-07-31T13:56:17.012Z,42.41
2018-07-31T13:58:45.734Z,45.37
2018-07-31T14:01:14.510Z,46.11
2018-07-31T14:03:43.570Z,46.57
2018-07-31T14:06:12.505Z,45.87
2018-07-31T14:08:41.512Z,47.26
2018-07-31T14:11:10.622Z,44.06
2018-07-31T14:13:39.484Z,43.37
2018-07-31T14:16:08.682Z,42.47
2018-07-31T14:18:37.530Z,42.73
2018-07-31T14:21:06.283Z,42.23
2018-07-31T14:23:36.659Z,41.91
2018-07-31T14:26:05.647Z,41.23
2018-07-31T14:28:34.561Z,40.80
2018-07-31T14:31:03.603Z,39.56
2018-07-31T14:33:32.365Z,39.28
2018-07-31T14:36:01.132Z,37.90
2018-07-31T14:38:30.162Z,37.72
2018-07-31T14:40:58.897Z,37.98
2018-07-31T14:43:27.650Z,37.49
2018-07-31T14:45:56.389Z,37.15
2018-07-31T14:48:25.179Z,37.41
2018-07-31T14:50:53.934Z,37.53
2018-07-31T14:53:22.807Z,37.16
2018-07-31T14:55:51.766Z,36.87
2018-07-31T14:58:20.653Z,37.04
2018-07-31T15:00:49.753Z,37.16
2018-07-31T15:03:18.506Z,37.23
2018-07-31T15:05:47.408Z,36.66
2018-07-31T15:08:16.045Z,36.96
2018-07-31T15:10:45.095Z,36.82
2018-07-31T15:13:14.008Z,37.51
2018-07-31T15:15:42.805Z,37.24
2018-07-31T15:18:11.559Z,36.94
2018-07-31T15:20:40.258Z,36.79
2018-07-31T15:23:08.959Z,36.77
2018-07-31T15:25:37.779Z,36.50
2018-07-31T15:28:06.559Z,36.51
2018-07-31T15:30:35.309Z,36.61
2018-07-31T15:33:04.293Z,36.55
2018-07-31T15:35:33.151Z,36.52
2018-07-31T15:38:02.107Z,36.82
2018-07-31T15:40:31.298Z,36.82
2018-07-31T15:43:00.058Z,36.92
2018-07-31T15:45:29.408Z,36.78
2018-07-31T15:47:58.272Z,36.66
2018-07-31T15:50:28.398Z,36.66
2018-07-31T15:52:57.790Z,36.45
2018-07-31T15:55:26.778Z,36.22
2018-07-31T15:57:55.626Z,36.04
2018-07-31T16:00:24.523Z,35.88
2018-07-31T16:02:53.245Z,35.79
2018-07-31T16:05:21.914Z,35.89
2018-07-31T16:07:50.712Z,35.88
2018-07-31T16:10:19.622Z,36.07
2018-07-31T16:12:48.531Z,36.05
2018-07-31T16:15:17.505Z,36.39
2018-07-31T16:17:46.709Z,36.12
2018-07-31T16:20:15.467Z,36.36
2018-07-31T16:22:44.289Z,36.44
2018-07-31T16:25:13.178Z,36.19
2018-07-31T16:27:41.965Z,36.18
2018-07-31T16:30:10.811Z,35.96
2018-07-31T16:32:39.494Z,35.81
2018-07-31T16:35:08.174Z,35.91
2018-07-31T16:37:36.912Z,36.20
2018-07-31T16:40:06.445Z,35.67
2018-07-31T16:42:35.193Z,35.78
2018-07-31T16:45:03.993Z,35.83
2018-07-31T16:47:32.651Z,35.77
2018-07-31T16:50:01.409Z,35.61
2018-07-31T16:52:30.305Z,35.52
2018-07-31T16:54:59.147Z,35.47
2018-07-31T16:57:28.982Z,35.61
2018-07-31T16:59:57.749Z,35.56
2018-07-31T17:02:26.780Z,35.30
2018-07-31T17:04:55.759Z,35.29
2018-07-31T17:07:25.521Z,35.26
2018-07-31T17:09:55.473Z,35.24
2018-07-31T17:12:24.393Z,35.29
2018-07-31T17:14:53.256Z,35.39
2018-07-31T17:17:22.074Z,35.45
2018-07-31T17:19:51.069Z,35.45
2018-07-31T17:22:19.841Z,35.60
2018-07-31T17:24:48.632Z,35.91
2018-07-31T17:27:17.534Z,36.43
2018-07-31T17:29:46.379Z,36.58
2018-07-31T17:32:15.374Z,36.53
2018-07-31T17:34:44.268Z,36.20
2018-07-31T17:37:12.945Z,36.10
2018-07-31T17:39:41.866Z,36.01
2018-07-31T17:42:10.798Z,35.67
2018-07-31T17:44:39.516Z,35.34
2018-07-31T17:47:08.388Z,35.28
2018-07-31T17:49:37.445Z,34.85
2018-07-31T17:52:06.347Z,34.69
2018-07-31T17:54:35.351Z,34.45
2018-07-31T17:57:04.189Z,34.28
2018-07-31T17:59:32.874Z,34.16
2018-07-31T18:02:02.006Z,34.01
2018-07-31T18:04:30.824Z,34.00
2018-07-31T18:06:59.794Z,33.79
2018-07-31T18:09:28.557Z,33.64
2018-07-31T18:11:57.266Z,33.55
2018-07-31T18:14:26.079Z,33.52
2018-07-31T18:16:54.809Z,33.37
2018-07-31T18:19:25.332Z,33.31
2018-07-31T18:21:54.016Z,33.31
2018-07-31T18:24:22.756Z,33.27
2018-07-31T18:26:51.645Z,33.32
2018-07-31T18:29:20.333Z,33.13
2018-07-31T18:31:49.324Z,32.97
2018-07-31T18:34:18.062Z,32.95
2018-07-31T18:36:46.771Z,32.84
2018-07-31T18:39:15.583Z,32.64
2018-07-31T18:41:44.396Z,32.68
2018-07-31T18:44:13.197Z,32.57
2018-07-31T18:46:41.989Z,32.50
2018-07-31T18:49:10.964Z,32.47
2018-07-31T18:51:40.202Z,32.38
2018-07-31T18:54:09.274Z,32.31
2018-07-31T18:56:38.426Z,32.23
2018-07-31T18:59:08.659Z,32.26
2018-07-31T19:01:37.674Z,32.18
2018-07-31T19:04:06.674Z,32.05
2018-07-31T19:06:35.789Z,31.94
2018-07-31T19:09:07.202Z,31.86
2018-07-31T19:11:36.140Z,31.79
2018-07-31T19:14:05.081Z,31.72
2018-07-31T19:16:34.801Z,31.63
2018-07-31T19:19:03.671Z,31.55
2018-07-31T19:21:32.363Z,31.51
2018-07-31T19:24:01.675Z,31.44
2018-07-31T19:26:30.779Z,31.40
2018-07-31T19:28:59.779Z,31.55
2018-07-31T19:31:28.958Z,31.58
2018-07-31T19:33:57.902Z,31.48
2018-07-31T19:36:26.984Z,31.76
2018-07-31T19:38:55.661Z,31.79
2018-07-31T19:41:24.526Z,31.87
2018-07-31T19:43:53.684Z,31.77
2018-07-31T19:46:22.599Z,31.70
2018-07-31T19:48:51.619Z,31.70
2018-07-31T19:51:20.596Z,31.72
2018-07-31T19:53:49.626Z,31.62
2018-07-31T19:56:18.310Z,31.54
2018-07-31T19:58:47.193Z,31.47
2018-07-31T20:01:16.012Z,31.36
2018-07-31T20:03:44.752Z,31.24
2018-07-31T20:06:13.462Z,31.21
2018-07-31T20:08:42.210Z,31.22
2018-07-31T20:11:11.238Z,31.21
2018-07-31T20:13:40.040Z,31.10
2018-07-31T20:16:08.820Z,31.02
2018-07-31T20:18:37.677Z,30.95
2018-07-31T20:21:06.388Z,30.87
2018-07-31T20:23:35.168Z,30.85
2018-07-31T20:26:04.061Z,30.74
2018-07-31T20:28:32.832Z,30.64
2018-07-31T20:31:01.969Z,30.53
2018-07-31T20:33:31.327Z,30.44
2018-07-31T20:36:00.029Z,30.39
2018-07-31T20:38:28.679Z,30.32
2018-07-31T20:40:57.432Z,30.26
2018-07-31T20:43:26.219Z,30.17
2018-07-31T20:45:55.113Z,30.10
2018-07-31T20:48:24.348Z,30.05
2018-07-31T20:50:53.392Z,30.00
2018-07-31T20:53:22.273Z,30.08
2018-07-31T20:55:50.955Z,30.01
2018-07-31T20:58:19.970Z,29.91
2018-07-31T21:00:48.901Z,29.88
2018-07-31T21:03:17.976Z,29.85
2018-07-31T21:05:46.712Z,29.87
2018-07-31T21:08:15.735Z,29.82
2018-07-31T21:10:44.509Z,29.73
2018-07-31T21:13:13.304Z,29.65
2018-07-31T21:15:42.227Z,29.57
2018-07-31T21:18:11.065Z,29.50
2018-07-31T21:20:40.063Z,29.45
2018-07-31T21:23:08.964Z,29.47
2018-07-31T21:25:37.742Z,29.38
2018-07-31T21:28:06.710Z,29.31
2018-07-31T21:30:35.500Z,29.24
2018-07-31T21:33:04.463Z,29.18
2018-07-31T21:35:34.170Z,29.13
2018-07-31T21:38:03.188Z,29.17
2018-07-31T21:40:31.928Z,29.12
2018-07-31T21:43:00.675Z,29.04
2018-07-31T21:45:29.355Z,29.02
2018-07-31T21:47:58.127Z,29.00
2018-07-31T21:50:26.994Z,28.99
2018-07-31T21:52:56.638Z,28.92
2018-07-31T21:55:25.485Z,28.87
2018-07-31T21:57:54.249Z,28.78
2018-07-31T22:00:23.125Z,28.70
2018-07-31T22:02:51.886Z,28.86
2018-07-31T22:05:20.867Z,28.91
2018-07-31T22:07:49.615Z,28.94
2018-07-31T22:10:18.323Z,28.80
2018-07-31T22:12:47.078Z,28.70
2018-07-31T22:15:15.798Z,28.61
2018-07-31T22:17:44.490Z,28.55
2018-07-31T22:20:13.210Z,28.61
2018-07-31T22:22:42.357Z,28.59
2018-07-31T22:25:11.121Z,28.39
2018-07-31T22:27:39.928Z,28.19
2018-07-31T22:30:08.887Z,28.11
2018-07-31T22:32:38.007Z,28.07
2018-07-31T22:35:07.277Z,27.92
2018-07-31T22:37:35.940Z,27.96
2018-07-31T22:40:04.769Z,27.98
2018-07-31T22:42:33.879Z,27.96
2018-07-31T22:45:02.840Z,27.91
2018-07-31T22:47:31.491Z,27.91
2018-07-31T22:50:00.221Z,27.85
2018-07-31T22:52:28.930Z,27.75
2018-07-31T22:54:58.146Z,27.67
2018-07-31T22:57:26.826Z,27.63
2018-07-31T22:59:55.770Z,27.58
2018-07-31T23:02:24.525Z,27.59
2018-07-31T23:04:53.329Z,27.58
2018-07-31T23:07:22.113Z,27.51
2018-07-31T23:09:57.226Z,27.48
2018-07-31T23:12:26.770Z,27.39
2018-07-31T23:14:55.666Z,27.35
2018-07-31T23:17:24.521Z,27.31
2018-07-31T23:19:53.322Z,27.27
2018-07-31T23:22:50.689Z,27.25
2018-07-31T23:25:19.766Z,27.24
2018-07-31T23:27:48.484Z,27.24
2018-07-31T23:30:17.261Z,27.18
2018-07-31T23:32:46.017Z,27.09
2018-07-31T23:35:14.803Z,27.01
2018-07-31T23:37:43.555Z,26.95
2018-07-31T23:40:12.287Z,26.89
2018-07-31T23:42:41.128Z,26.82
2018-07-31T23:45:09.881Z,26.72
2018-07-31T23:47:38.657Z,26.63
2018-07-31T23:50:07.479Z,26.57
2018-07-31T23:52:36.292Z,26.48
2018-07-31T23:55:05.273Z,26.40
2018-07-31T23:57:34.309Z,26.24
